createdAt,value
2023-02-15T00:01:53.838Z,60.78
2023-02-15T00:04:48.608Z,78.40
2023-02-15T00:07:34.255Z,71.95
2023-02-15T00:10:19.672Z,76.70
2023-02-15T00:13:05.025Z,83.00
2023-02-15T00:15:50.458Z,68.13
2023-02-15T00:18:35.848Z,65.80
2023-02-15T00:21:21.219Z,63.35
2023-02-15T00:24:09.323Z,76.38
2023-02-15T00:26:57.252Z,60.58
2023-02-15T00:29:42.723Z,54.63
2023-02-15T00:32:28.088Z,57.97
2023-02-15T00:35:13.288Z,54.17
2023-02-15T00:37:58.651Z,56.58
2023-02-15T00:40:43.838Z,47.75
2023-02-15T00:43:32.269Z,51.53
2023-02-15T00:46:17.783Z,51.97
2023-02-15T00:49:04.484Z,51.92
2023-02-15T00:51:49.980Z,53.90
2023-02-15T00:54:35.793Z,45.58
2023-02-15T00:57:21.096Z,47.47
2023-02-15T01:00:07.422Z,50.00
2023-02-15T01:02:53.546Z,52.03
2023-02-15T01:05:38.914Z,47.85
2023-02-15T01:08:24.357Z,51.28
2023-02-15T01:11:12.438Z,47.35
2023-02-15T01:13:59.403Z,50.90
2023-02-15T01:16:44.848Z,54.45
2023-02-15T01:19:30.090Z,46.47
2023-02-15T01:22:15.407Z,61.15
2023-02-15T01:25:00.575Z,63.78
2023-02-15T01:27:48.551Z,53.88
2023-02-15T01:30:34.471Z,46.75
2023-02-15T01:33:20.022Z,49.88
2023-02-15T01:36:06.070Z,54.63
2023-02-15T01:38:51.245Z,58.30
2023-02-15T01:41:37.693Z,49.53
2023-02-15T01:44:48.107Z,48.55
2023-02-15T01:47:41.595Z,49.03
2023-02-15T01:50:40.899Z,46.35
2023-02-15T01:53:31.803Z,43.30
2023-02-15T01:56:33.709Z,49.47
2023-02-15T01:59:22.636Z,42.35
2023-02-15T02:02:10.351Z,53.10
2023-02-15T02:04:59.489Z,48.53
2023-02-15T02:07:46.063Z,48.33
2023-02-15T02:10:31.785Z,52.38
2023-02-15T02:13:17.429Z,56.95
2023-02-15T02:16:22.121Z,54.38
2023-02-15T02:19:32.706Z,54.72
2023-02-15T02:22:24.237Z,55.88
2023-02-15T02:25:15.965Z,60.42
2023-02-15T02:28:25.153Z,60.33
2023-02-15T02:31:49.466Z,64.32
2023-02-15T02:34:42.441Z,51.55
2023-02-15T02:37:45.994Z,56.33
2023-02-15T02:40:34.545Z,59.20
2023-02-15T02:44:03.875Z,59.00
2023-02-15T02:47:13.626Z,55.63
2023-02-15T02:50:00.955Z,66.43
2023-02-15T02:52:50.917Z,51.72
2023-02-15T02:55:51.126Z,58.08
2023-02-15T02:58:41.693Z,51.33
2023-02-15T03:01:38.573Z,50.95
2023-02-15T03:04:34.498Z,62.85
2023-02-15T03:07:23.109Z,55.55
2023-02-15T03:10:11.050Z,52.92
2023-02-15T03:12:56.825Z,53.17
2023-02-15T03:16:02.187Z,60.67
2023-02-15T03:18:53.855Z,49.10
2023-02-15T03:21:58.652Z,60.38
2023-02-15T03:24:50.328Z,59.60
2023-02-15T03:27:40.189Z,56.05
2023-02-15T03:30:26.109Z,56.00
2023-02-15T03:33:14.754Z,56.90
2023-02-15T03:36:14.552Z,54.15
2023-02-15T03:39:11.807Z,53.50
2023-02-15T03:42:19.814Z,56.47
2023-02-15T03:45:09.772Z,60.60
2023-02-15T03:47:57.136Z,55.33
2023-02-15T03:51:01.017Z,50.90
2023-02-15T03:53:47.719Z,59.17
2023-02-15T03:56:35.681Z,51.15
2023-02-15T03:59:40.021Z,54.17
2023-02-15T04:02:31.262Z,52.80
2023-02-15T04:05:17.338Z,52.53
2023-02-15T04:08:04.061Z,51.58
2023-02-15T04:10:57.149Z,49.72
2023-02-15T04:13:44.568Z,48.92
2023-02-15T04:16:31.293Z,54.83
2023-02-15T04:19:35.340Z,48.42
2023-02-15T04:22:39.598Z,52.22
2023-02-15T04:25:25.349Z,62.50
2023-02-15T04:28:11.050Z,66.93
2023-02-15T04:30:56.289Z,66.57
2023-02-15T04:33:41.467Z,68.32
2023-02-15T04:36:26.875Z,71.32
2023-02-15T04:39:15.398Z,63.45
2023-02-15T04:42:00.671Z,67.60
2023-02-15T04:44:45.964Z,63.25
2023-02-15T04:47:31.642Z,70.15
2023-02-15T04:50:17.331Z,61.38
2023-02-15T04:53:02.472Z,95.88
2023-02-15T04:55:48.117Z,97.43
2023-02-15T04:58:33.441Z,79.47
2023-02-15T05:01:18.819Z,84.50
2023-02-15T05:04:04.562Z,92.57
2023-02-15T05:06:49.717Z,104.20
2023-02-15T05:09:36.058Z,97.53
2023-02-15T05:12:21.690Z,94.75
2023-02-15T05:15:07.239Z,88.28
2023-02-15T05:17:52.815Z,97.63
2023-02-15T05:20:38.342Z,86.25
2023-02-15T05:23:23.729Z,75.95
2023-02-15T05:26:31.707Z,72.93
2023-02-15T05:29:17.215Z,60.30
2023-02-15T05:32:03.585Z,59.25
2023-02-15T05:34:49.492Z,59.20
2023-02-15T05:37:34.713Z,65.75
2023-02-15T05:40:22.310Z,66.05
2023-02-15T05:43:08.104Z,48.05
2023-02-15T05:45:55.223Z,63.50
2023-02-15T05:48:40.681Z,67.18
2023-02-15T05:51:25.902Z,68.18
2023-02-15T05:54:11.409Z,69.32
2023-02-15T05:56:56.881Z,60.45
2023-02-15T05:59:42.143Z,72.82
2023-02-15T06:02:27.682Z,80.72
2023-02-15T06:05:13.452Z,73.25
2023-02-15T06:07:58.842Z,69.90
2023-02-15T06:10:47.042Z,71.22
2023-02-15T06:13:33.916Z,74.40
2023-02-15T06:16:20.637Z,69.88
2023-02-15T06:19:08.213Z,84.22
2023-02-15T06:21:53.611Z,86.15
2023-02-15T06:24:38.778Z,70.88
2023-02-15T06:27:25.184Z,68.40
2023-02-15T06:30:11.655Z,81.60
2023-02-15T06:32:57.153Z,81.60
2023-02-15T06:35:42.461Z,96.18
2023-02-15T06:38:28.573Z,92.72
2023-02-15T06:41:14.017Z,70.38
2023-02-15T06:43:59.473Z,87.63
2023-02-15T06:46:47.244Z,94.05
2023-02-15T06:49:32.951Z,116.15
2023-02-15T06:52:18.369Z,152.07
2023-02-15T06:55:04.395Z,144.27
2023-02-15T06:57:51.023Z,123.07
2023-02-15T07:00:36.825Z,128.98
2023-02-15T07:03:22.034Z,133.02
2023-02-15T07:06:09.414Z,144.82
2023-02-15T07:08:54.889Z,135.65
2023-02-15T07:11:59.117Z,113.13
2023-02-15T07:14:44.584Z,107.55
2023-02-15T07:17:38.069Z,85.88
2023-02-15T07:20:24.481Z,62.50
2023-02-15T07:23:09.711Z,79.25
2023-02-15T07:26:02.853Z,89.22
2023-02-15T07:28:48.837Z,86.30
2023-02-15T07:31:34.406Z,73.32
2023-02-15T07:34:20.253Z,86.75
2023-02-15T07:37:05.508Z,82.05
2023-02-15T07:39:50.998Z,104.38
2023-02-15T07:42:36.672Z,107.72
2023-02-15T07:45:22.871Z,81.80
2023-02-15T07:48:08.736Z,88.00
2023-02-15T07:50:54.379Z,73.38
2023-02-15T07:53:39.976Z,72.18
2023-02-15T07:56:25.712Z,70.40
2023-02-15T07:59:11.217Z,94.57
2023-02-15T08:01:57.608Z,63.95
2023-02-15T08:04:43.456Z,71.80
2023-02-15T08:07:28.756Z,65.15
2023-02-15T08:10:34.323Z,85.25
2023-02-15T08:13:19.804Z,64.95
2023-02-15T08:16:05.770Z,62.63
2023-02-15T08:18:52.737Z,77.72
2023-02-15T08:21:41.753Z,81.35
2023-02-15T08:24:29.648Z,71.55
2023-02-15T08:27:15.220Z,62.92
2023-02-15T08:30:00.713Z,61.28
2023-02-15T08:32:46.393Z,55.17
2023-02-15T08:35:32.599Z,64.00
2023-02-15T08:38:43.794Z,85.93
2023-02-15T08:41:35.618Z,68.32
2023-02-15T08:44:21.717Z,68.70
2023-02-15T08:47:07.564Z,81.35
2023-02-15T08:49:53.700Z,67.43
2023-02-15T08:52:39.240Z,66.93
2023-02-15T08:55:25.487Z,28.00
2023-02-15T08:58:12.274Z,45.88
2023-02-15T09:00:59.206Z,50.67
2023-02-15T09:03:47.160Z,36.95
2023-02-15T09:06:33.383Z,62.80
2023-02-15T09:09:19.994Z,50.65
2023-02-15T09:12:06.037Z,63.45
2023-02-15T09:14:52.395Z,44.85
2023-02-15T09:17:38.026Z,57.50
2023-02-15T09:20:26.049Z,38.55
2023-02-15T09:23:25.487Z,69.43
2023-02-15T09:26:15.989Z,66.90
2023-02-15T09:29:02.709Z,62.75
2023-02-15T09:31:51.564Z,51.17
2023-02-15T09:34:37.376Z,68.95
2023-02-15T09:37:23.414Z,47.50
2023-02-15T09:40:09.850Z,86.43
2023-02-15T09:43:35.610Z,67.43
2023-02-15T09:46:40.164Z,60.58
2023-02-15T09:49:59.992Z,54.33
2023-02-15T09:53:07.327Z,49.20
2023-02-15T09:56:20.901Z,63.63
2023-02-15T09:59:16.944Z,51.10
2023-02-15T10:02:33.289Z,59.85
2023-02-15T10:06:02.543Z,28.67
2023-02-15T10:09:19.515Z,62.38
2023-02-15T10:12:23.542Z,40.83
2023-02-15T10:15:25.147Z,45.55
2023-02-15T10:18:18.248Z,47.03
2023-02-15T10:21:40.454Z,39.63
2023-02-15T10:24:31.013Z,35.75
2023-02-15T10:27:20.578Z,55.45
2023-02-15T10:30:12.601Z,47.10
2023-02-15T10:33:06.234Z,48.25
2023-02-15T10:36:30.943Z,41.40
2023-02-15T10:39:29.359Z,35.97
2023-02-15T10:42:33.352Z,30.60
2023-02-15T10:45:42.983Z,30.67
2023-02-15T10:48:45.894Z,40.72
2023-02-15T10:51:59.659Z,30.80
2023-02-15T10:55:08.295Z,50.40
2023-02-15T10:58:18.997Z,29.35
2023-02-15T11:01:25.463Z,45.80
2023-02-15T11:04:53.668Z,50.97
2023-02-15T11:07:42.268Z,32.28
2023-02-15T11:10:52.865Z,38.13
2023-02-15T11:13:41.809Z,24.10
2023-02-15T11:16:35.580Z,25.05
2023-02-15T11:19:28.790Z,33.13
2023-02-15T11:22:17.175Z,33.58
2023-02-15T11:25:17.389Z,36.00
2023-02-15T11:28:05.774Z,33.22
2023-02-15T11:33:42.869Z,29.15
2023-02-15T11:36:39.347Z,15.80
2023-02-15T11:39:29.594Z,23.23
2023-02-15T11:42:18.082Z,29.60
2023-02-15T11:45:28.636Z,25.67
2023-02-15T11:48:16.729Z,22.60
2023-02-15T11:51:03.965Z,19.65
2023-02-15T11:53:50.460Z,17.65
2023-02-15T11:56:36.388Z,16.65
2023-02-15T11:59:50.513Z,29.60
2023-02-15T12:02:38.867Z,20.77
2023-02-15T12:08:26.001Z,14.20
2023-02-15T12:11:14.043Z,25.15
2023-02-15T12:16:49.236Z,23.83
2023-02-15T12:19:41.579Z,22.38
2023-02-15T12:22:29.806Z,18.33
2023-02-15T12:25:53.047Z,20.13
2023-02-15T12:28:43.057Z,17.25
2023-02-15T12:31:33.807Z,19.15
2023-02-15T12:34:24.524Z,18.23
2023-02-15T12:37:18.292Z,14.50
2023-02-15T12:40:25.067Z,11.45
2023-02-15T12:46:27.756Z,16.13
2023-02-15T12:49:22.805Z,19.30
2023-02-15T12:52:21.282Z,19.02
2023-02-15T12:55:33.794Z,13.63
2023-02-15T12:58:22.577Z,25.73
2023-02-15T13:01:15.477Z,21.30
2023-02-15T13:04:17.374Z,13.15
2023-02-15T13:07:03.853Z,9.90
2023-02-15T13:09:50.662Z,16.63
2023-02-15T13:12:38.169Z,23.85
2023-02-15T13:15:36.039Z,16.80
2023-02-15T13:18:31.839Z,19.48
2023-02-15T13:21:20.289Z,11.80
2023-02-15T13:24:25.354Z,12.38
2023-02-15T13:27:20.806Z,11.57
2023-02-15T13:30:30.190Z,14.35
2023-02-15T13:33:15.962Z,16.17
2023-02-15T13:36:24.860Z,22.52
2023-02-15T13:39:20.095Z,19.27
2023-02-15T13:42:26.367Z,16.58
2023-02-15T13:45:15.052Z,8.05
2023-02-15T13:48:02.426Z,12.90
2023-02-15T13:51:06.564Z,12.70
2023-02-15T13:54:00.226Z,20.70
2023-02-15T13:57:27.142Z,15.65
2023-02-15T14:00:12.633Z,17.42
2023-02-15T14:03:26.862Z,17.83
2023-02-15T14:06:36.300Z,12.32
2023-02-15T14:09:42.388Z,7.28
2023-02-15T14:12:51.062Z,14.93
2023-02-15T14:15:46.536Z,7.80
2023-02-15T14:18:52.453Z,12.65
2023-02-15T14:21:56.762Z,11.20
2023-02-15T14:24:53.675Z,14.55
2023-02-15T14:28:09.385Z,8.13
2023-02-15T14:30:55.930Z,13.75
2023-02-15T14:33:45.666Z,17.10
2023-02-15T14:36:35.102Z,13.75
2023-02-15T14:40:08.233Z,12.55
2023-02-15T14:42:57.157Z,12.70
2023-02-15T14:45:51.631Z,20.48
2023-02-15T14:51:46.883Z,13.75
2023-02-15T14:54:34.379Z,18.27
2023-02-15T14:57:23.677Z,14.13
2023-02-15T15:00:39.041Z,20.38
2023-02-15T15:03:25.744Z,12.10
2023-02-15T15:06:31.966Z,27.45
2023-02-15T15:09:27.117Z,16.85
2023-02-15T15:12:24.899Z,13.05
2023-02-15T15:15:29.595Z,19.75
2023-02-15T15:18:45.937Z,10.07
2023-02-15T15:21:49.995Z,24.15
2023-02-15T15:24:38.485Z,20.08
2023-02-15T15:27:44.725Z,27.85
2023-02-15T15:30:30.517Z,28.10
2023-02-15T15:33:43.002Z,26.27
2023-02-15T15:36:47.361Z,18.30
2023-02-15T15:40:53.477Z,23.13
2023-02-15T15:44:36.079Z,24.83
2023-02-15T15:48:06.327Z,11.63
2023-02-15T15:50:55.323Z,22.65
2023-02-15T15:56:33.316Z,44.75
2023-02-15T15:59:31.025Z,49.55
2023-02-15T16:02:19.873Z,50.40
2023-02-15T16:05:10.256Z,48.65
2023-02-15T16:07:55.626Z,41.58
2023-02-15T16:10:41.554Z,33.63
2023-02-15T16:14:06.185Z,38.90
2023-02-15T16:16:54.545Z,37.67
2023-02-15T16:22:29.993Z,32.28
2023-02-15T16:29:15.752Z,42.20
2023-02-15T16:32:22.467Z,40.53
2023-02-15T16:35:19.254Z,39.20
2023-02-15T16:38:26.022Z,60.08
2023-02-15T16:41:17.850Z,34.20
2023-02-15T16:44:12.211Z,39.88
2023-02-15T16:46:57.887Z,38.45
2023-02-15T16:49:46.992Z,41.15
2023-02-15T16:52:32.689Z,59.75
2023-02-15T16:55:24.059Z,55.13
2023-02-15T16:59:01.293Z,67.43
2023-02-15T17:02:55.202Z,51.63
2023-02-15T17:05:53.490Z,58.58
2023-02-15T17:09:29.155Z,61.95
2023-02-15T17:13:18.627Z,83.18
2023-02-15T17:17:34.149Z,88.78
2023-02-15T17:21:05.333Z,88.43
2023-02-15T17:24:14.624Z,145.90
2023-02-15T17:27:04.775Z,112.13
2023-02-15T17:29:58.081Z,107.07
2023-02-15T17:32:59.646Z,51.70
2023-02-15T17:36:10.298Z,58.47
2023-02-15T17:38:59.115Z,55.45
2023-02-15T17:41:46.035Z,64.07
2023-02-15T17:44:32.728Z,59.03
2023-02-15T17:47:20.123Z,60.45
2023-02-15T17:50:06.788Z,63.13
2023-02-15T17:52:54.036Z,61.30
2023-02-15T17:55:39.989Z,66.88
2023-02-15T17:58:26.253Z,69.47
2023-02-15T18:01:39.843Z,68.80
2023-02-15T18:04:45.770Z,39.17
2023-02-15T18:07:59.843Z,22.20
2023-02-15T18:11:04.364Z,52.00
2023-02-15T18:13:50.460Z,52.60
2023-02-15T18:16:43.398Z,68.10
2023-02-15T18:19:28.963Z,41.47
2023-02-15T18:22:18.138Z,30.15
2023-02-15T18:25:03.896Z,55.50
2023-02-15T18:27:49.363Z,50.45
2023-02-15T18:30:35.125Z,53.03
2023-02-15T18:33:27.229Z,56.28
2023-02-15T18:36:17.542Z,53.75
2023-02-15T18:39:07.738Z,99.05
2023-02-15T18:41:54.738Z,68.88
2023-02-15T18:44:40.585Z,215.88
2023-02-15T18:47:27.348Z,118.45
2023-02-15T18:50:14.181Z,52.38
2023-02-15T18:52:59.920Z,69.38
2023-02-15T18:55:45.597Z,70.38
2023-02-15T18:58:30.897Z,72.15
2023-02-15T19:01:19.402Z,70.20
2023-02-15T19:04:05.300Z,63.67
2023-02-15T19:06:53.085Z,46.40
2023-02-15T19:09:39.500Z,33.13
2023-02-15T19:12:28.052Z,62.00
2023-02-15T19:15:16.275Z,41.83
2023-02-15T19:18:01.643Z,45.13
2023-02-15T19:20:47.896Z,52.92
2023-02-15T19:23:33.703Z,59.83
2023-02-15T19:26:18.988Z,54.17
2023-02-15T19:29:04.603Z,74.47
2023-02-15T19:31:50.117Z,56.55
2023-02-15T19:34:36.168Z,66.45
2023-02-15T19:37:34.294Z,36.63
2023-02-15T19:40:23.455Z,72.40
2023-02-15T19:43:20.448Z,50.20
2023-02-15T19:46:06.455Z,29.58
2023-02-15T19:48:53.637Z,49.25
2023-02-15T19:51:40.274Z,56.90
2023-02-15T19:54:31.060Z,61.10
2023-02-15T19:57:17.285Z,57.15
2023-02-15T20:00:22.155Z,50.92
2023-02-15T20:03:08.117Z,45.92
2023-02-15T20:05:53.777Z,42.90
2023-02-15T20:08:39.510Z,40.50
2023-02-15T20:11:25.219Z,46.78
2023-02-15T20:14:14.349Z,60.75
2023-02-15T20:16:59.627Z,64.20
2023-02-15T20:19:46.275Z,36.50
2023-02-15T20:22:32.786Z,60.85
2023-02-15T20:25:27.913Z,34.33
2023-02-15T20:28:25.900Z,49.45
2023-02-15T20:31:16.606Z,52.78
2023-02-15T20:34:02.404Z,26.40
2023-02-15T20:36:48.523Z,57.28
2023-02-15T20:39:35.193Z,34.03
2023-02-15T20:42:21.138Z,42.15
2023-02-15T20:45:23.380Z,31.77
2023-02-15T20:48:08.802Z,42.10
2023-02-15T20:50:55.187Z,44.65
2023-02-15T20:53:44.593Z,49.88
2023-02-15T20:56:37.633Z,45.25
2023-02-15T20:59:39.789Z,44.08
2023-02-15T21:02:29.950Z,40.88
2023-02-15T21:05:52.785Z,40.92
2023-02-15T21:09:16.656Z,37.08
2023-02-15T21:12:34.577Z,34.00
2023-02-15T21:16:16.207Z,32.55
2023-02-15T21:19:26.149Z,34.28
2023-02-15T21:22:23.828Z,31.85
2023-02-15T21:25:40.420Z,37.50
2023-02-15T21:28:31.460Z,46.53
2023-02-15T21:31:39.561Z,53.03
2023-02-15T21:34:47.978Z,57.33
2023-02-15T21:37:39.295Z,55.47
2023-02-15T21:40:33.598Z,55.53
2023-02-15T21:43:41.732Z,32.78
2023-02-15T21:46:50.938Z,42.05
2023-02-15T21:49:36.422Z,24.75
2023-02-15T21:56:54.202Z,32.67
2023-02-15T21:59:49.896Z,30.05
2023-02-15T22:02:36.140Z,35.75
2023-02-15T22:05:31.223Z,43.78
2023-02-15T22:08:17.439Z,42.15
2023-02-15T22:11:05.630Z,42.78
2023-02-15T22:13:51.480Z,32.42
2023-02-15T22:16:38.193Z,20.63
2023-02-15T22:19:23.756Z,42.80
2023-02-15T22:22:09.452Z,50.13
2023-02-15T22:24:58.267Z,26.75
2023-02-15T22:27:45.630Z,33.97
2023-02-15T22:30:34.103Z,25.52
2023-02-15T22:33:29.121Z,32.35
2023-02-15T22:36:24.678Z,39.72
2023-02-15T22:39:10.318Z,38.75
2023-02-15T22:41:56.004Z,24.00
2023-02-15T22:44:41.581Z,44.08
2023-02-15T22:47:28.979Z,25.02
2023-02-15T22:50:26.510Z,32.05
2023-02-15T22:53:12.587Z,26.30
2023-02-15T22:56:01.258Z,29.23
2023-02-15T22:58:49.617Z,20.50
2023-02-15T23:01:37.069Z,21.65
2023-02-15T23:04:25.332Z,26.08
2023-02-15T23:07:16.605Z,24.73
2023-02-15T23:10:02.186Z,40.53
2023-02-15T23:13:17.519Z,27.55
2023-02-15T23:16:05.250Z,20.25
2023-02-15T23:18:51.272Z,36.08
2023-02-15T23:21:37.416Z,34.47
2023-02-15T23:24:27.060Z,33.70
2023-02-15T23:27:35.333Z,32.85
2023-02-15T23:30:21.047Z,17.83
2023-02-15T23:33:14.643Z,21.33
2023-02-15T23:36:00.338Z,24.63
2023-02-15T23:38:46.235Z,34.38
2023-02-15T23:41:32.323Z,30.88
2023-02-15T23:44:24.286Z,36.83
2023-02-15T23:47:45.407Z,21.55
2023-02-15T23:50:31.255Z,20.88
2023-02-15T23:53:20.342Z,28.45
2023-02-15T23:56:05.901Z,28.25
2023-02-15T23:58:51.699Z,32.88
